Denver, Colorado
Traffic Map
Current Weather Conditions
Denver, Colorado
Broken Clouds
Broken Clouds
14°
Feels Like: 14°
Wind Chill: 14° Ceiling: 2000
Heat Index: 14° Visibility: 10mi
Dew Point: Wind: 8mph
Humidity: 67% Direction: 30° (NNE)
Pressure: 29.99in Gusts: 0mph
Raw Report DataKBKF 221958Z 03007KT 10SM BKN020 BKN030 BKN110 14/08 A2999 RMK AO2A SLP116 T01360075
Traffic Incident Summary
Active as of:
Severity:
Category:
InformationThere was an issue retrieving the traffic information for this location. Please try a different location or try again shortly.
Advertisements
Track Severe Weather on mobile